Time;durP1;ratioP1;P1;durP2;ratioP2;P2;SDS_P1;SDS_P2;PMS_P1;PMS_P2;Temp;Humidity;BMP_temperature;BMP_pressure;BME280_temperature;BME280_humidity;BME280_pressure;Samples;Min_cycle;Max_cycle;Signal;HPM_P1;HPM_P2
2023/07/28 00:01:43;;;;;;;3.83;2.80;;;;;;;18.85;96.45;98072.94;5154701;27;41859;-74
2023/07/28 00:04:11;;;;;;;3.80;2.80;;;;;;;18.90;97.42;98086.72;5136748;27;42175;-76
2023/07/28 00:06:39;;;;;;;2.73;2.50;;;;;;;18.83;97.08;98080.31;5153663;27;42652;-76
2023/07/28 00:09:06;;;;;;;2.50;2.30;;;;;;;18.88;97.70;98087.88;5136261;27;41554;-74
2023/07/28 00:11:35;;;;;;;3.27;2.60;;;;;;;18.90;97.17;98075.97;5152613;27;41935;-73
2023/07/28 00:14:03;;;;;;;2.70;2.50;;;;;;;18.90;97.32;98084.03;5152635;27;41233;-75
2023/07/28 00:16:30;;;;;;;2.87;2.67;;;;;;;18.84;97.12;98065.91;5152334;27;42878;-75
2023/07/28 00:18:58;;;;;;;3.93;2.67;;;;;;;18.90;97.08;98086.72;5154015;27;43372;-73
2023/07/28 00:21:27;;;;;;;2.97;2.67;;;;;;;18.90;97.40;98072.47;5135352;27;40775;-77
2023/07/28 00:23:55;;;;;;;3.57;2.53;;;;;;;18.86;97.23;98065.75;5152734;27;41842;-75
2023/07/28 00:26:22;;;;;;;3.10;2.70;;;;;;;18.90;97.27;98069.78;5153564;27;42806;-75
2023/07/28 00:28:51;;;;;;;2.70;2.50;;;;;;;18.90;96.87;98062.56;5153988;27;42564;-74
2023/07/28 00:31:19;;;;;;;2.53;2.23;;;;;;;18.89;96.65;98052.84;5152357;27;41572;-76
2023/07/28 00:33:48;;;;;;;2.67;2.40;;;;;;;18.95;96.49;98059.38;5153764;27;41853;-73
2023/07/28 00:36:15;;;;;;;2.43;2.23;;;;;;;18.95;96.47;98064.72;5134725;27;42047;-75
2023/07/28 00:38:43;;;;;;;2.20;1.93;;;;;;;18.96;96.19;98053.84;5152474;27;40966;-74
2023/07/28 00:41:10;;;;;;;2.60;2.40;;;;;;;18.94;96.25;98052.31;5135621;27;41322;-76
2023/07/28 00:43:38;;;;;;;2.60;2.37;;;;;;;18.79;96.30;98030.69;5153472;27;42630;-76
2023/07/28 00:46:07;;;;;;;5.03;3.00;;;;;;;18.92;96.36;98055.16;5135963;27;43116;-76
2023/07/28 00:48:35;;;;;;;2.53;2.33;;;;;;;18.89;96.47;98052.84;5153220;27;41582;-75
2023/07/28 00:51:03;;;;;;;3.90;2.50;;;;;;;18.89;96.47;98049.31;5135574;27;40040;-76
2023/07/28 00:53:31;;;;;;;2.87;2.60;;;;;;;18.89;96.57;98052.84;5150137;27;42734;-74
2023/07/28 00:55:59;;;;;;;3.70;2.70;;;;;;;18.80;96.43;98040.41;5153970;27;43596;-77
2023/07/28 00:58:27;;;;;;;4.13;2.50;;;;;;;18.89;96.35;98058.22;5153300;27;42322;-76
2023/07/28 01:00:54;;;;;;;2.80;2.50;;;;;;;18.87;96.46;98043.28;5152043;27;41152;-75
2023/07/28 01:03:24;;;;;;;2.40;2.20;;;;;;;18.92;96.06;98057.00;5153396;27;41827;-76
2023/07/28 01:05:59;;;;;;;2.83;2.57;;;;;;;18.91;96.62;98056.19;5152899;27;42691;-74
2023/07/28 01:08:32;;;;;;;2.60;2.40;;;;;;;18.92;96.47;98055.16;5134871;27;41614;-74
2023/07/28 01:11:01;;;;;;;2.77;2.57;;;;;;;18.94;96.21;98050.47;5148944;27;40818;-74
2023/07/28 01:13:28;;;;;;;3.43;2.60;;;;;;;18.93;96.84;98043.44;5133873;27;40565;-76
2023/07/28 01:15:57;;;;;;;3.57;2.60;;;;;;;18.90;96.79;98054.53;5134118;27;41591;-74
2023/07/28 01:18:26;;;;;;;4.30;3.10;;;;;;;18.86;97.20;98042.44;5151694;27;43451;-74
2023/07/28 01:20:57;;;;;;;3.93;2.87;;;;;;;18.88;96.92;98050.31;5151552;27;40047;-75
2023/07/28 01:23:36;;;;;;;3.10;2.60;;;;;;;18.89;96.98;98050.16;5148703;27;41942;-76
2023/07/28 01:26:08;;;;;;;6.13;2.40;;;;;;;18.88;96.75;98045.78;5149898;27;42871;-75
2023/07/28 01:28:41;;;;;;;3.40;2.63;;;;;;;18.88;96.79;98045.78;5148735;27;42313;-75
2023/07/28 01:31:09;;;;;;;3.07;2.30;;;;;;;18.89;96.81;98041.28;5134463;27;40978;-74
2023/07/28 01:33:37;;;;;;;2.60;2.40;;;;;;;18.88;96.93;98051.16;5134127;27;41723;-75
2023/07/28 01:36:04;;;;;;;2.67;2.40;;;;;;;18.87;96.90;98044.13;5133966;27;42816;-74
2023/07/28 01:38:32;;;;;;;3.03;2.60;;;;;;;18.86;97.17;98045.13;5151550;27;43231;-74
2023/07/28 01:41:00;;;;;;;2.83;2.43;;;;;;;18.88;97.06;98048.47;5151482;27;40135;-75
2023/07/28 01:43:27;;;;;;;2.67;2.47;;;;;;;18.88;96.71;98045.78;5153671;27;41883;-76
2023/07/28 01:45:57;;;;;;;3.10;2.53;;;;;;;18.87;97.12;98049.47;5134821;27;41773;-75
2023/07/28 01:48:24;;;;;;;2.90;2.60;;;;;;;18.89;96.51;98046.63;5152401;27;43232;-76
2023/07/28 01:50:52;;;;;;;2.97;2.73;;;;;;;18.89;97.00;98052.00;5153330;27;40860;-74
2023/07/28 01:53:20;;;;;;;2.60;2.40;;;;;;;18.90;96.59;98054.53;5152360;27;41837;-77
2023/07/28 01:55:48;;;;;;;3.10;2.53;;;;;;;18.92;96.32;98047.13;5151990;27;43040;-74
2023/07/28 01:58:15;;;;;;;2.80;2.60;;;;;;;18.95;96.21;98052.16;5133594;27;41092;-74
2023/07/28 02:00:43;;;;;;;2.33;2.10;;;;;;;18.96;96.28;98043.09;5133669;27;39912;-77
2023/07/28 02:03:12;;;;;;;2.67;2.47;;;;;;;18.98;96.00;98057.19;5151130;27;42752;-75
2023/07/28 02:05:40;;;;;;;3.77;2.20;;;;;;;19.01;95.89;98051.50;5150157;27;42721;-75
2023/07/28 02:08:08;;;;;;;2.80;2.50;;;;;;;19.03;95.75;98059.38;5152025;27;43183;-74
2023/07/28 02:10:35;;;;;;;2.97;2.37;;;;;;;19.04;95.47;98049.50;5151348;27;41884;-75
2023/07/28 02:13:03;;;;;;;2.23;1.90;;;;;;;19.04;95.58;98057.53;5150653;27;43370;-76
2023/07/28 02:15:32;;;;;;;2.63;2.43;;;;;;;18.92;95.60;98035.53;5133515;27;42933;-75
2023/07/28 02:17:59;;;;;;;3.60;2.40;;;;;;;18.98;96.11;98042.94;5150650;27;43218;-75
2023/07/28 02:20:29;;;;;;;2.40;2.20;;;;;;;18.95;96.34;98041.41;5133826;27;40615;-75
2023/07/28 02:22:57;;;;;;;2.70;2.40;;;;;;;18.93;96.83;98038.06;5151391;27;41659;-75
2023/07/28 02:25:25;;;;;;;4.63;2.43;;;;;;;18.90;97.48;98038.44;5155987;27;42815;-75
2023/07/28 02:27:53;;;;;;;2.63;2.43;;;;;;;18.88;97.38;98035.06;5154475;27;42373;-75
2023/07/28 02:30:20;;;;;;;2.80;2.23;;;;;;;18.85;97.29;98038.06;5154353;27;40982;-74
2023/07/28 02:32:48;;;;;;;2.77;2.50;;;;;;;18.85;98.02;98046.13;5154504;27;41566;-76
2023/07/28 02:35:16;;;;;;;2.70;2.47;;;;;;;18.78;97.76;98029.03;5154259;27;42285;-76
2023/07/28 02:37:45;;;;;;;2.70;2.33;;;;;;;18.83;97.85;98037.41;5154039;27;42414;-75
2023/07/28 02:40:14;;;;;;;2.40;2.20;;;;;;;18.87;97.53;98033.38;5154495;27;41659;-74
2023/07/28 02:42:41;;;;;;;2.43;2.23;;;;;;;18.88;97.63;98045.78;5154818;27;41969;-77
2023/07/28 02:45:10;;;;;;;2.23;2.03;;;;;;;18.88;97.44;98045.78;5138111;27;42783;-75
2023/07/28 02:47:38;;;;;;;2.23;2.03;;;;;;;18.89;97.43;98044.78;5137659;27;42291;-75
2023/07/28 02:50:07;;;;;;;4.30;2.40;;;;;;;18.86;97.71;98052.31;5156424;27;41689;-74
2023/07/28 02:52:34;;;;;;;3.63;2.47;;;;;;;18.85;98.04;98051.50;5155884;27;41856;-76
2023/07/28 02:55:04;;;;;;;2.50;2.30;;;;;;;18.86;97.78;98046.97;5155056;27;41756;-77
2023/07/28 02:57:32;;;;;;;3.30;2.07;;;;;;;18.85;98.14;98040.75;5155004;27;43014;-74
2023/07/28 03:00:02;;;;;;;2.07;1.97;;;;;;;18.82;97.92;98034.88;5138777;27;20232;-75
2023/07/28 03:02:30;;;;;;;2.63;1.93;;;;;;;18.85;97.82;98045.28;5137338;27;41810;-75
2023/07/28 03:04:59;;;;;;;3.47;2.17;;;;;;;18.83;98.23;98048.13;5154967;27;42874;-77
2023/07/28 03:07:56;;;;;;;1.83;1.73;;;;;;;18.84;98.35;98051.66;5136432;27;40995;-74
2023/07/28 03:10:26;;;;;;;2.37;2.17;;;;;;;18.86;98.14;98050.50;5153339;27;40912;-76
2023/07/28 03:12:53;;;;;;;2.77;1.77;;;;;;;18.84;97.96;98055.19;5154639;27;41530;-75
2023/07/28 03:15:22;;;;;;;3.23;2.00;;;;;;;18.84;98.05;98060.53;5153691;27;42789;-75
2023/07/28 03:17:50;;;;;;;2.37;2.00;;;;;;;18.85;98.29;98056.00;5153213;27;43229;-75
2023/07/28 03:20:18;;;;;;;3.00;2.27;;;;;;;18.86;98.05;98055.00;5136527;27;40896;-76
2023/07/28 03:22:46;;;;;;;1.93;1.80;;;;;;;18.78;98.22;98050.50;5153588;27;40862;-77
2023/07/28 03:25:14;;;;;;;2.90;1.90;;;;;;;18.82;98.79;98062.53;5153551;27;42768;-74
2023/07/28 03:27:43;;;;;;;1.80;1.70;;;;;;;18.83;98.53;98053.50;5153151;27;42169;-76
2023/07/28 03:30:11;;;;;;;3.07;1.87;;;;;;;18.88;98.42;98067.25;5153614;27;41664;-77
2023/07/28 03:32:39;;;;;;;1.70;1.60;;;;;;;18.89;98.22;98060.88;5136055;27;40687;-75
2023/07/28 03:35:08;;;;;;;2.30;2.10;;;;;;;18.88;97.81;98067.25;5153860;27;42879;-75
2023/07/28 03:37:41;;;;;;;1.87;1.60;;;;;;;18.89;98.22;98071.63;5152892;27;42479;-77
2023/07/28 03:40:09;;;;;;;1.70;1.60;;;;;;;18.91;98.16;98072.28;5153604;27;40898;-74
2023/07/28 03:42:48;;;;;;;1.67;1.57;;;;;;;18.95;97.68;98073.63;5154025;27;41875;-77
2023/07/28 03:45:16;;;;;;;2.30;1.97;;;;;;;18.94;97.69;98071.94;5154392;27;43595;-76
2023/07/28 03:47:43;;;;;;;1.83;1.73;;;;;;;18.90;98.47;98067.94;5154152;27;42833;-76
2023/07/28 03:50:11;;;;;;;2.20;1.73;;;;;;;18.90;98.76;98073.31;5154528;27;41083;-76
2023/07/28 03:52:39;;;;;;;1.43;1.33;;;;;;;18.90;98.75;98070.63;5136805;27;41056;-76
2023/07/28 03:55:07;;;;;;;1.60;1.47;;;;;;;18.92;98.45;98073.09;5136692;27;41674;-77
2023/07/28 03:57:35;;;;;;;1.60;1.50;;;;;;;18.93;99.13;98059.53;5153687;27;43270;-75
2023/07/28 04:00:06;;;;;;;2.17;1.93;;;;;;;18.92;98.83;98059.69;5154233;27;40936;-76
2023/07/28 04:02:40;;;;;;;1.67;1.30;;;;;;;18.93;99.02;98053.31;5154714;27;42738;-75
2023/07/28 04:05:09;;;;;;;1.60;1.50;;;;;;;18.88;98.97;98045.78;5136777;27;41885;-75
2023/07/28 04:07:37;;;;;;;1.93;1.50;;;;;;;18.93;99.18;98048.78;5152896;27;42629;-76
2023/07/28 04:10:06;;;;;;;1.43;1.33;;;;;;;18.96;98.94;98047.63;5152637;27;39774;-74
2023/07/28 04:12:33;;;;;;;1.70;1.60;;;;;;;18.91;98.51;98050.00;5152442;27;42864;-77
2023/07/28 04:15:01;;;;;;;2.03;1.70;;;;;;;19.03;98.42;98056.69;5152908;27;42595;-76
2023/07/28 04:17:30;;;;;;;2.80;1.70;;;;;;;18.94;98.46;98042.41;5152425;27;41923;-75
2023/07/28 04:19:58;;;;;;;1.57;1.30;;;;;;;19.05;98.36;98059.19;5152664;27;41661;-74
2023/07/28 04:22:26;;;;;;;1.97;1.50;;;;;;;19.07;98.34;98059.84;5134987;27;42110;-75
2023/07/28 04:24:55;;;;;;;1.70;1.60;;;;;;;19.08;98.62;98061.53;5152640;27;42952;-75
2023/07/28 04:27:23;;;;;;;2.50;1.40;;;;;;;19.07;98.89;98075.97;5152413;27;42857;-74
2023/07/28 04:29:52;;;;;;;1.47;1.33;;;;;;;19.06;98.97;98072.44;5135213;27;40069;-76
2023/07/28 04:32:23;;;;;;;1.40;1.30;;;;;;;19.06;99.13;98068.91;5135009;27;40842;-76
2023/07/28 04:34:54;;;;;;;1.50;1.40;;;;;;;19.08;99.20;98074.97;5152395;27;43811;-76
2023/07/28 04:37:51;;;;;;;1.43;1.17;;;;;;;19.13;98.71;98070.78;5129884;27;41427;-75
2023/07/28 04:40:28;;;;;;;1.60;1.30;;;;;;;19.15;98.64;98073.28;5152737;27;42536;-75
2023/07/28 04:42:56;;;;;;;1.30;1.20;;;;;;;19.18;98.57;98068.41;5153003;27;43034;-77
2023/07/28 04:45:23;;;;;;;1.37;1.00;;;;;;;19.21;98.66;98072.59;5154596;27;42476;-74
2023/07/28 04:47:52;;;;;;;1.80;1.33;;;;;;;19.25;98.82;98073.94;5151914;27;43271;-76
2023/07/28 04:50:22;;;;;;;1.40;1.27;;;;;;;19.27;98.69;98074.63;5135993;27;39895;-75
2023/07/28 04:53:19;;;;;;;1.60;1.13;;;;;;;19.31;98.70;98067.88;5135561;27;42650;-76
2023/07/28 04:56:06;;;;;;;1.97;1.23;;;;;;;19.32;98.75;98064.19;5150087;27;43832;-74
2023/07/28 04:58:34;;;;;;;1.23;0.97;;;;;;;19.33;98.72;98063.19;5153140;27;43288;-75
2023/07/28 05:01:03;;;;;;;1.13;1.00;;;;;;;19.30;98.59;98066.22;5153023;27;41838;-75
2023/07/28 05:03:32;;;;;;;1.73;1.00;;;;;;;19.33;98.88;98080.13;5153146;27;42739;-77
2023/07/28 05:06:12;;;;;;;1.37;1.00;;;;;;;19.35;98.79;98079.97;5135328;27;41639;-77
2023/07/28 05:08:39;;;;;;;1.57;1.20;;;;;;;19.29;98.64;98069.91;5135281;27;42388;-76
2023/07/28 05:11:07;;;;;;;2.03;1.10;;;;;;;19.37;98.64;98078.81;5150925;27;41651;-77
2023/07/28 05:13:35;;;;;;;1.10;1.00;;;;;;;19.41;98.71;98086.53;5152219;27;42537;-77
2023/07/28 05:16:02;;;;;;;1.17;1.07;;;;;;;19.43;98.67;98092.53;5151710;27;43689;-77
2023/07/28 05:18:48;;;;;;;1.27;1.00;;;;;;;19.45;98.08;98085.16;5151537;27;42353;-74
2023/07/28 05:21:49;;;;;;;2.30;0.93;;;;;;;19.51;97.97;98096.09;5084270;27;39630;-77
2023/07/28 05:24:20;;;;;;;1.90;1.13;;;;;;;19.54;98.16;98106.47;5148775;27;42630;-75
2023/07/28 05:26:47;;;;;;;1.00;0.90;;;;;;;19.56;97.89;98104.47;5151311;27;42452;-75
2023/07/28 05:29:16;;;;;;;0.87;0.80;;;;;;;19.62;97.74;98111.00;5134342;27;41146;-76
2023/07/28 05:31:45;;;;;;;2.20;0.93;;;;;;;19.67;97.80;98109.47;5134773;27;42828;-76
2023/07/28 05:34:22;;;;;;;0.90;0.90;;;;;;;19.71;97.53;98109.97;5148503;27;41803;-76
2023/07/28 05:36:51;;;;;;;0.90;0.90;;;;;;;19.73;97.78;98114.19;5150961;27;42872;-74
2023/07/28 05:39:19;;;;;;;1.10;0.90;;;;;;;19.55;97.23;98075.09;5151479;27;43310;-76
2023/07/28 05:41:47;;;;;;;1.10;1.00;;;;;;;19.81;97.22;98117.84;5135016;27;42146;-77
2023/07/28 05:44:16;;;;;;;2.50;1.00;;;;;;;19.86;97.23;98120.88;5152828;27;41686;-75
2023/07/28 05:46:44;;;;;;;1.10;1.00;;;;;;;19.92;96.69;98117.47;5152285;27;42533;-74
2023/07/28 05:49:12;;;;;;;1.33;1.17;;;;;;;19.99;96.42;98110.41;5119528;27;42386;-79
2023/07/28 05:51:39;;;;;;;1.97;1.10;;;;;;;20.19;96.08;98122.41;5110019;27;40970;-77
2023/07/28 05:54:09;;;;;;;1.10;0.90;;;;;;;20.36;95.68;98117.84;5131290;27;42445;-78
2023/07/28 05:56:36;;;;;;;1.40;1.30;;;;;;;20.48;95.29;98110.22;5112496;27;42814;-78
2023/07/28 05:59:04;;;;;;;1.23;1.13;;;;;;;20.70;94.68;98120.19;5108670;27;42659;-75
2023/07/28 06:01:31;;;;;;;1.50;1.40;;;;;;;20.75;94.15;98107.03;5112637;27;39716;-81
2023/07/28 06:04:15;;;;;;;1.50;1.40;;;;;;;20.97;93.34;98119.66;5128800;27;41817;-79
2023/07/28 06:06:48;;;;;;;3.03;1.50;;;;;;;20.99;92.30;98098.78;5128647;27;44044;-78
2023/07/28 06:09:18;;;;;;;1.60;1.27;;;;;;;21.25;92.28;98119.16;5131708;27;43314;-78
2023/07/28 06:11:46;;;;;;;1.43;1.13;;;;;;;21.35;91.67;98104.41;5129905;27;41918;-77
2023/07/28 06:14:14;;;;;;;1.53;1.30;;;;;;;21.57;90.90;98116.16;5112984;27;41933;-78
2023/07/28 06:16:42;;;;;;;1.20;1.10;;;;;;;21.66;90.39;98119.59;5112266;27;42100;-76
2023/07/28 06:19:09;;;;;;;1.17;1.07;;;;;;;21.67;89.76;98116.72;5130072;27;43004;-77
2023/07/28 06:21:39;;;;;;;1.67;1.10;;;;;;;21.65;89.28;98121.44;5112535;27;40984;-75
2023/07/28 06:24:07;;;;;;;1.10;1.00;;;;;;;21.63;89.29;98126.22;5129971;27;42009;-77
2023/07/28 06:26:37;;;;;;;0.97;0.93;;;;;;;21.64;89.08;98129.72;5112195;27;42190;-76
2023/07/28 06:29:05;;;;;;;1.73;1.10;;;;;;;21.62;89.26;98127.22;5131276;27;42394;-77
2023/07/28 06:31:33;;;;;;;2.97;1.20;;;;;;;21.49;88.46;98117.06;5129886;27;39997;-78
2023/07/28 06:34:04;;;;;;;1.60;1.23;;;;;;;21.55;88.49;98131.66;5130171;27;40645;-78
2023/07/28 06:36:32;;;;;;;1.20;1.10;;;;;;;21.53;88.67;98117.53;5112953;27;44274;-82
2023/07/28 06:38:59;;;;;;;1.20;1.00;;;;;;;21.63;88.26;98128.91;5113488;27;40844;-78
2023/07/28 06:41:27;;;;;;;1.07;0.97;;;;;;;21.68;87.97;98131.88;5130769;27;39928;-84
2023/07/28 06:44:02;;;;;;;1.37;1.27;;;;;;;;;;5114432;27;42240;-87
2023/07/28 06:46:30;;;;;;;1.33;1.23;;;;;;;21.83;88.24;98123.81;5131007;27;43855;-81
2023/07/28 06:48:58;;;;;;;1.20;1.10;;;;;;;21.93;87.56;98139.69;5132488;27;42273;-84
2023/07/28 06:51:26;;;;;;;1.30;1.20;;;;;;;21.93;87.72;98145.94;5113736;27;39869;-81
2023/07/28 06:53:54;;;;;;;1.80;1.20;;;;;;;21.91;87.55;98152.50;5130387;27;41736;-76
2023/07/28 06:56:22;;;;;;;1.97;1.30;;;;;;;21.84;87.34;98155.13;5112888;27;41829;-77
2023/07/28 06:58:52;;;;;;;1.40;1.10;;;;;;;21.82;87.64;98143.69;5130374;27;42152;-78
2023/07/28 07:01:22;;;;;;;2.77;1.60;;;;;;;21.52;87.06;98110.47;5112924;27;39739;-77
2023/07/28 07:03:49;;;;;;;1.23;1.00;;;;;;;21.75;86.72;98157.09;5113560;27;41488;-76
2023/07/28 07:06:17;;;;;;;1.57;1.40;;;;;;;21.71;87.05;98153.06;5112502;27;42146;-77
2023/07/28 07:08:45;;;;;;;2.17;1.30;;;;;;;21.73;87.04;98148.34;5113324;27;42382;-81
2023/07/28 07:11:12;;;;;;;1.60;1.20;;;;;;;21.81;87.39;98168.97;5130909;27;41066;-79
2023/07/28 07:13:40;;;;;;;1.40;1.30;;;;;;;21.73;87.10;98151.03;5133648;27;41826;-80
2023/07/28 07:16:16;;;;;;;1.27;1.10;;;;;;;21.77;86.83;98173.88;5132716;27;42855;-78
2023/07/28 07:18:45;;;;;;;3.47;1.40;;;;;;;21.70;86.31;98167.56;5115716;27;41864;-77
2023/07/28 07:21:13;;;;;;;1.20;1.10;;;;;;;21.62;86.21;98167.66;5133682;27;41940;-78
2023/07/28 07:23:40;;;;;;;1.37;1.27;;;;;;;21.66;86.45;98177.00;5116458;27;41731;-81
2023/07/28 07:26:26;;;;;;;0.87;0.80;;;;;;;21.57;85.86;98159.25;5131195;27;43703;-85
2023/07/28 07:28:54;;;;;;;1.23;0.90;;;;;;;21.61;86.52;98173.22;5117552;27;42991;-84
2023/07/28 07:31:22;;;;;;;1.00;1.00;;;;;;;21.59;86.57;98168.00;5116550;27;41996;-82
2023/07/28 07:34:04;;;;;;;4.63;1.17;;;;;;;21.63;86.92;98172.00;5116342;27;40830;-83
2023/07/28 07:36:32;;;;;;;1.70;1.10;;;;;;;21.51;86.17;98151.91;5116044;27;41960;-86
2023/07/28 07:39:00;;;;;;;1.33;1.20;;;;;;;21.37;85.38;98123.91;5116367;27;41061;-88
2023/07/28 07:41:29;;;;;;;1.27;1.17;;;;;;;21.51;85.13;98146.53;5116495;27;40024;-85
2023/07/28 07:43:57;;;;;;;1.63;1.27;;;;;;;21.50;85.21;98153.78;5117304;27;40574;-84
2023/07/28 07:46:25;;;;;;;1.30;1.10;;;;;;;21.66;84.55;98182.41;5116762;27;41952;-86
2023/07/28 07:48:54;;;;;;;1.30;1.00;;;;;;;21.71;84.45;98182.72;5117412;27;42366;-83
2023/07/28 07:51:23;;;;;;;1.20;1.10;;;;;;;21.86;84.01;98196.22;5133330;27;40132;-83
2023/07/28 07:53:51;;;;;;;1.00;1.00;;;;;;;21.86;83.11;98191.66;5134165;27;41127;-84
2023/07/28 07:56:19;;;;;;;0.90;0.90;;;;;;;21.97;83.12;98201.16;5116217;27;41790;-85
2023/07/28 07:58:46;;;;;;;1.20;1.10;;;;;;;21.99;83.31;98201.00;5116695;27;42216;-85
2023/07/28 08:01:19;;;;;;;1.40;1.30;;;;;;;21.99;82.89;98206.41;5116294;27;39903;-88
2023/07/28 08:03:54;;;;;;;1.17;1.03;;;;;;;21.80;82.91;98178.91;5116926;27;41883;-85
2023/07/28 08:06:26;;;;;;;1.27;0.97;;;;;;;21.78;82.23;98191.72;5116399;27;41968;-87
2023/07/28 08:08:55;;;;;;;0.93;0.93;;;;;;;21.63;82.27;98161.25;5116534;27;41183;-88
2023/07/28 08:11:41;;;;;;;1.07;1.00;;;;;;;22.02;81.61;98219.50;5114485;27;41632;-89
2023/07/28 08:14:12;;;;;;;2.23;1.03;;;;;;;22.12;81.25;98203.91;5115440;27;40993;-84
2023/07/28 08:16:40;;;;;;;1.93;1.20;;;;;;;22.47;80.64;98218.53;5115172;27;42319;-84
2023/07/28 08:22:12;;;;;;;1.43;1.20;;;;;;;22.87;79.58;98222.63;5114601;27;40221;-88
2023/07/28 08:24:40;;;;;;;1.40;1.20;;;;;;;23.03;78.65;98221.53;5098617;27;41254;-86
2023/07/28 08:27:08;;;;;;;1.30;1.17;;;;;;;23.10;77.94;98220.59;5114919;27;43266;-81
2023/07/28 08:29:36;;;;;;;1.20;1.03;;;;;;;23.36;77.33;98230.03;5115553;27;41554;-82
2023/07/28 08:32:54;;;;;;;1.00;1.00;;;;;;;23.39;77.14;98238.56;5132636;27;41112;-89
2023/07/28 08:35:29;;;;;;;2.73;1.10;;;;;;;23.27;76.61;98232.81;5114788;27;42240;-90
2023/07/28 08:37:58;;;;;;;1.00;1.00;;;;;;;23.05;76.57;98190.59;5114855;27;41821;-87
2023/07/28 08:40:56;;;;;;;1.60;1.20;;;;;;;23.59;75.76;98233.41;5115090;27;41591;-90
2023/07/28 08:46:28;;;;;;;1.17;1.17;;;;;;;24.61;72.26;98248.13;5056739;28;41435;-90
2023/07/28 08:49:00;;;;;;;1.10;1.00;;;;;;;24.72;71.57;98227.78;5107879;27;42293;-91
2023/07/28 08:54:44;;;;;;;1.77;0.80;;;;;;;24.81;70.76;98260.94;5117575;27;40195;-88
2023/07/28 08:58:10;;;;;;;1.03;0.80;;;;;;;24.29;70.67;98186.53;5115065;27;41638;-88
2023/07/28 09:01:00;;;;;;;2.70;1.10;;;;;;;24.49;70.31;98259.72;5088561;27;42246;-84
2023/07/28 09:04:34;;;;;;;1.10;1.00;;;;;;;24.38;70.92;98261.09;5117031;27;42487;-84
2023/07/28 09:07:18;;;;;;;1.03;0.90;;;;;;;24.09;71.37;98236.94;5038111;28;40840;-83
2023/07/28 09:10:51;;;;;;;1.00;1.00;;;;;;;23.94;70.79;98201.88;5116656;27;40900;-84
2023/07/28 09:13:41;;;;;;;1.00;1.00;;;;;;;23.90;70.50;98206.81;5120829;27;41855;-83
2023/07/28 09:16:18;;;;;;;1.10;1.00;;;;;;;24.29;71.05;98275.81;5118139;27;41509;-83
2023/07/28 09:18:47;;;;;;;1.20;1.10;;;;;;;24.42;71.01;98270.50;5116095;27;41429;-84
2023/07/28 09:21:18;;;;;;;1.23;1.10;;;;;;;24.53;70.59;98248.28;5114038;27;42115;-84
2023/07/28 09:23:46;;;;;;;1.00;1.00;;;;;;;24.98;69.19;98275.84;5114529;27;42343;-86
2023/07/28 09:26:39;;;;;;;1.93;1.10;;;;;;;25.49;66.84;98283.53;5114229;27;41280;-91
2023/07/28 09:29:17;;;;;;;1.03;0.97;;;;;;;26.05;65.44;98279.47;5114184;27;40905;-77
2023/07/28 09:31:47;;;;;;;1.83;1.10;;;;;;;26.50;63.00;98282.41;5113870;27;40349;-79
2023/07/28 09:34:27;;;;;;;1.00;1.00;;;;;;;26.66;61.95;98271.09;5129805;27;41816;-78
2023/07/28 09:36:55;;;;;;;1.17;1.07;;;;;;;26.95;60.77;98288.81;5127792;27;42775;-87
2023/07/28 09:39:23;;;;;;;1.33;1.07;;;;;;;27.12;61.49;98286.44;5131189;27;40938;-77
2023/07/28 09:41:53;;;;;;;0.87;0.87;;;;;;;26.97;61.34;98289.41;5114411;27;41130;-85
2023/07/28 09:44:21;;;;;;;2.60;1.30;;;;;;;26.59;62.62;98278.41;5131926;27;42953;-87
2023/07/28 09:46:51;;;;;;;1.10;1.00;;;;;;;26.37;64.02;98283.25;5117087;27;42318;-79
2023/07/28 09:49:22;;;;;;;1.80;1.10;;;;;;;26.24;64.13;98282.38;5125008;27;41090;-80
2023/07/28 09:51:54;;;;;;;1.43;1.33;;;;;;;26.72;63.67;98281.09;5133187;27;40575;-83
2023/07/28 09:54:27;;;;;;;1.50;1.40;;;;;;;27.65;60.82;98283.50;5132095;27;42999;-80
2023/07/28 09:56:58;;;;;;;1.23;1.13;;;;;;;27.83;59.25;98272.69;5114161;27;41237;-82
2023/07/28 09:59:30;;;;;;;1.60;1.50;;;;;;;28.05;58.71;98284.06;5129889;27;41625;-83
2023/07/28 10:02:00;;;;;;;4.00;1.50;;;;;;;28.20;58.26;98284.56;5132195;27;40734;-86
2023/07/28 10:04:28;;;;;;;1.17;1.17;;;;;;;28.24;57.97;98292.09;5132188;27;42165;-83
2023/07/28 10:06:57;;;;;;;1.30;1.20;;;;;;;27.87;57.05;98291.06;5132071;27;41199;-87
2023/07/28 10:09:26;;;;;;;1.80;1.20;;;;;;;27.64;57.47;98285.38;5113722;27;39974;-81
2023/07/28 10:11:54;;;;;;;1.10;1.10;;;;;;;27.44;57.45;98290.91;5112652;27;40375;-79
2023/07/28 10:14:32;;;;;;;1.40;1.30;;;;;;;27.07;57.30;98294.44;5130840;27;43736;-80
2023/07/28 10:17:01;;;;;;;1.30;1.20;;;;;;;26.88;57.53;98287.13;5113414;27;41130;-81
2023/07/28 10:19:29;;;;;;;1.30;1.20;;;;;;;27.13;57.44;98298.97;5131173;27;41810;-81
2023/07/28 10:22:02;;;;;;;1.57;1.30;;;;;;;27.00;58.00;98288.16;5131649;27;42748;-81
2023/07/28 10:24:52;;;;;;;1.47;1.37;;;;;;;26.83;57.45;98294.03;5128506;27;43059;-80
2023/07/28 10:27:45;;;;;;;1.57;1.47;;;;;;;26.92;57.01;98293.81;5130103;27;42247;-80
2023/07/28 10:30:15;;;;;;;1.47;1.37;;;;;;;27.53;56.54;98300.47;5125470;27;41642;-81
2023/07/28 10:32:45;;;;;;;1.50;1.40;;;;;;;28.24;56.11;98302.13;5128832;27;41772;-82
2023/07/28 10:35:25;;;;;;;1.83;1.40;;;;;;;28.93;54.88;98291.00;5130815;27;42799;-79
2023/07/28 10:37:56;;;;;;;1.40;1.30;;;;;;;29.58;53.65;98313.09;5130628;27;41545;-81
2023/07/28 10:40:34;;;;;;;1.93;1.67;;;;;;;30.34;49.92;98319.75;5129241;27;40862;-80
2023/07/28 10:43:04;;;;;;;1.73;1.33;;;;;;;31.36;48.50;98337.47;5113760;27;40875;-80
2023/07/28 10:45:34;;;;;;;1.30;1.30;;;;;;;31.59;46.79;98343.94;5132089;27;42843;-78
2023/07/28 10:48:03;;;;;;;1.53;1.33;;;;;;;31.25;47.07;98337.50;5132980;27;42165;-81
2023/07/28 10:50:32;;;;;;;2.07;1.17;;;;;;;30.85;48.54;98330.03;5115855;27;40829;-79
2023/07/28 10:53:00;;;;;;;1.40;1.23;;;;;;;30.56;49.15;98317.31;5116233;27;41479;-79
2023/07/28 10:55:28;;;;;;;1.30;1.20;;;;;;;30.29;49.29;98311.44;5115916;27;41755;-77
2023/07/28 10:57:58;;;;;;;1.30;1.20;;;;;;;30.18;49.76;98323.16;5134256;27;40991;-77
2023/07/28 11:00:26;;;;;;;1.33;1.23;;;;;;;30.13;49.18;98328.50;5133165;27;41377;-79
2023/07/28 11:02:55;;;;;;;1.43;1.33;;;;;;;30.18;49.57;98309.50;5134580;27;41890;-84
2023/07/28 11:05:43;;;;;;;2.43;1.50;;;;;;;30.95;48.79;98300.16;5134402;27;42177;-84
2023/07/28 11:08:11;;;;;;;1.20;1.20;;;;;;;31.35;47.29;98319.38;5117606;27;41598;-83
2023/07/28 11:10:40;;;;;;;1.30;1.20;;;;;;;31.66;47.38;98307.16;5132811;27;40882;-84
2023/07/28 11:13:40;;;;;;;1.40;1.30;;;;;;;31.57;45.63;98308.59;5133066;27;42128;-83
2023/07/28 11:16:12;;;;;;;1.77;1.20;;;;;;;31.77;44.59;98352.03;5115947;27;42476;-83
2023/07/28 11:18:42;;;;;;;1.23;1.20;;;;;;;31.98;45.13;98336.78;5117094;27;41646;-83
2023/07/28 11:24:11;;;;;;;1.60;1.40;;;;;;;31.39;44.61;98322.47;5115934;27;40363;-83
2023/07/28 11:26:41;;;;;;;1.03;1.00;;;;;;;31.15;45.04;98340.84;5116114;27;41661;-84
2023/07/28 11:29:09;;;;;;;1.37;1.27;;;;;;;30.79;45.59;98333.69;5115909;27;42288;-79
2023/07/28 11:31:36;;;;;;;1.60;1.50;;;;;;;30.71;46.05;98339.53;5114785;27;41247;-80
2023/07/28 11:34:14;;;;;;;1.40;1.30;;;;;;;30.80;44.95;98338.09;5133137;27;42585;-81
2023/07/28 11:36:42;;;;;;;1.17;1.10;;;;;;;30.77;44.11;98346.81;5114834;27;42528;-80
2023/07/28 11:39:10;;;;;;;2.07;1.30;;;;;;;30.88;43.86;98343.22;5115760;27;41111;-81
2023/07/28 11:41:39;;;;;;;1.37;1.13;;;;;;;31.24;44.27;98349.50;5133496;27;40701;-81
2023/07/28 11:44:08;;;;;;;1.03;1.03;;;;;;;31.19;43.66;98332.97;5116519;27;40893;-80
2023/07/28 11:46:37;;;;;;;1.90;1.30;;;;;;;31.73;43.88;98346.19;5134124;27;42440;-80
2023/07/28 11:49:11;;;;;;;2.13;1.33;;;;;;;32.52;42.59;98354.47;5133335;27;43221;-76
2023/07/28 11:51:44;;;;;;;1.20;1.10;;;;;;;33.48;41.62;98353.19;5132522;27;40881;-79
2023/07/28 11:54:14;;;;;;;1.10;1.10;;;;;;;33.53;40.78;98350.50;5131666;27;42677;-82
2023/07/28 11:56:42;;;;;;;0.90;0.90;;;;;;;33.46;39.91;98363.59;5132354;27;42744;-83
2023/07/28 11:59:09;;;;;;;1.27;1.03;;;;;;;33.43;39.84;98350.38;5134913;27;43048;-82
2023/07/28 12:01:54;;;;;;;1.27;0.93;;;;;;;33.57;38.82;98345.34;5116105;27;41040;-83
2023/07/28 12:04:25;;;;;;;1.00;1.00;;;;;;;33.54;39.30;98351.31;5116623;27;40443;-81
2023/07/28 12:07:10;;;;;;;0.90;0.90;;;;;;;32.95;39.88;98336.50;5133360;27;42697;-90